sensor_id;sensor_type;location;lat;lon;timestamp;P1;durP1;ratioP1;P2;durP2;ratioP2
4055;SDS011;2043;52.184;8.690;2023-04-07T00:01:23;21.93;;;12.40;;
4055;SDS011;2043;52.184;8.690;2023-04-07T00:03:50;18.03;;;11.63;;
4055;SDS011;2043;52.184;8.690;2023-04-07T00:06:17;22.47;;;12.37;;
4055;SDS011;2043;52.184;8.690;2023-04-07T00:08:44;18.80;;;11.40;;
4055;SDS011;2043;52.184;8.690;2023-04-07T00:11:11;19.17;;;11.10;;
4055;SDS011;2043;52.184;8.690;2023-04-07T00:13:38;17.80;;;11.83;;
4055;SDS011;2043;52.184;8.690;2023-04-07T00:16:04;22.00;;;12.00;;
4055;SDS011;2043;52.184;8.690;2023-04-07T00:18:31;22.13;;;12.20;;
4055;SDS011;2043;52.184;8.690;2023-04-07T00:20:58;19.80;;;12.87;;
4055;SDS011;2043;52.184;8.690;2023-04-07T00:23:25;23.83;;;13.70;;
4055;SDS011;2043;52.184;8.690;2023-04-07T00:25:52;18.93;;;12.20;;
4055;SDS011;2043;52.184;8.690;2023-04-07T00:28:19;19.50;;;11.53;;
4055;SDS011;2043;52.184;8.690;2023-04-07T00:30:46;22.60;;;11.63;;
4055;SDS011;2043;52.184;8.690;2023-04-07T00:33:12;18.97;;;11.13;;
4055;SDS011;2043;52.184;8.690;2023-04-07T00:35:39;22.73;;;12.00;;
4055;SDS011;2043;52.184;8.690;2023-04-07T00:38:06;17.63;;;10.77;;
4055;SDS011;2043;52.184;8.690;2023-04-07T00:40:33;18.93;;;10.27;;
4055;SDS011;2043;52.184;8.690;2023-04-07T00:42:59;23.63;;;12.33;;
4055;SDS011;2043;52.184;8.690;2023-04-07T00:45:26;16.10;;;10.30;;
4055;SDS011;2043;52.184;8.690;2023-04-07T00:47:53;18.50;;;11.50;;
4055;SDS011;2043;52.184;8.690;2023-04-07T00:50:23;19.43;;;11.27;;
4055;SDS011;2043;52.184;8.690;2023-04-07T00:52:50;21.93;;;11.87;;
4055;SDS011;2043;52.184;8.690;2023-04-07T00:55:17;19.80;;;10.87;;
4055;SDS011;2043;52.184;8.690;2023-04-07T00:57:44;17.27;;;11.10;;
4055;SDS011;2043;52.184;8.690;2023-04-07T01:00:12;21.23;;;12.50;;
4055;SDS011;2043;52.184;8.690;2023-04-07T01:02:52;18.33;;;10.63;;
4055;SDS011;2043;52.184;8.690;2023-04-07T01:05:37;18.30;;;11.33;;
4055;SDS011;2043;52.184;8.690;2023-04-07T01:16:31;17.10;;;10.80;;
4055;SDS011;2043;52.184;8.690;2023-04-07T01:19:36;16.87;;;10.60;;
4055;SDS011;2043;52.184;8.690;2023-04-07T01:22:19;17.20;;;10.80;;
4055;SDS011;2043;52.184;8.690;2023-04-07T01:30:16;21.80;;;12.87;;
4055;SDS011;2043;52.184;8.690;2023-04-07T01:32:45;24.40;;;13.00;;
4055;SDS011;2043;52.184;8.690;2023-04-07T01:35:17;25.50;;;13.00;;
4055;SDS011;2043;52.184;8.690;2023-04-07T01:37:45;15.90;;;10.50;;
4055;SDS011;2043;52.184;8.690;2023-04-07T01:40:14;22.23;;;11.40;;
4055;SDS011;2043;52.184;8.690;2023-04-07T01:42:42;18.83;;;11.70;;
4055;SDS011;2043;52.184;8.690;2023-04-07T01:45:11;18.33;;;10.73;;
4055;SDS011;2043;52.184;8.690;2023-04-07T01:47:38;17.80;;;11.03;;
4055;SDS011;2043;52.184;8.690;2023-04-07T01:50:06;17.17;;;10.80;;
4055;SDS011;2043;52.184;8.690;2023-04-07T01:52:35;19.30;;;11.30;;
4055;SDS011;2043;52.184;8.690;2023-04-07T01:55:05;19.20;;;11.50;;
4055;SDS011;2043;52.184;8.690;2023-04-07T01:57:32;17.70;;;10.57;;
4055;SDS011;2043;52.184;8.690;2023-04-07T01:59:59;16.23;;;10.70;;
4055;SDS011;2043;52.184;8.690;2023-04-07T02:02:26;19.17;;;9.97;;
4055;SDS011;2043;52.184;8.690;2023-04-07T02:04:54;15.43;;;9.33;;
4055;SDS011;2043;52.184;8.690;2023-04-07T02:10:24;17.30;;;10.90;;
4055;SDS011;2043;52.184;8.690;2023-04-07T02:12:53;17.30;;;9.77;;
4055;SDS011;2043;52.184;8.690;2023-04-07T02:15:22;17.33;;;10.37;;
4055;SDS011;2043;52.184;8.690;2023-04-07T02:17:50;18.60;;;11.10;;
4055;SDS011;2043;52.184;8.690;2023-04-07T02:20:19;20.50;;;11.10;;
4055;SDS011;2043;52.184;8.690;2023-04-07T02:22:47;17.97;;;11.30;;
4055;SDS011;2043;52.184;8.690;2023-04-07T02:25:24;18.47;;;11.40;;
4055;SDS011;2043;52.184;8.690;2023-04-07T02:27:56;18.50;;;10.70;;
4055;SDS011;2043;52.184;8.690;2023-04-07T02:30:25;19.77;;;11.83;;
4055;SDS011;2043;52.184;8.690;2023-04-07T02:32:52;18.80;;;11.83;;
4055;SDS011;2043;52.184;8.690;2023-04-07T02:35:20;17.37;;;10.47;;
4055;SDS011;2043;52.184;8.690;2023-04-07T02:37:47;19.00;;;10.97;;
4055;SDS011;2043;52.184;8.690;2023-04-07T02:40:14;20.03;;;10.90;;
4055;SDS011;2043;52.184;8.690;2023-04-07T02:42:41;19.80;;;11.57;;
4055;SDS011;2043;52.184;8.690;2023-04-07T02:45:08;18.03;;;10.47;;
4055;SDS011;2043;52.184;8.690;2023-04-07T02:47:36;21.00;;;11.33;;
4055;SDS011;2043;52.184;8.690;2023-04-07T02:50:04;23.13;;;11.03;;
4055;SDS011;2043;52.184;8.690;2023-04-07T02:52:31;18.60;;;11.30;;
4055;SDS011;2043;52.184;8.690;2023-04-07T02:54:58;18.77;;;11.77;;
4055;SDS011;2043;52.184;8.690;2023-04-07T02:57:25;20.57;;;11.37;;
4055;SDS011;2043;52.184;8.690;2023-04-07T02:59:51;21.83;;;12.67;;
4055;SDS011;2043;52.184;8.690;2023-04-07T03:02:20;20.10;;;12.57;;
4055;SDS011;2043;52.184;8.690;2023-04-07T03:04:47;18.20;;;11.57;;
4055;SDS011;2043;52.184;8.690;2023-04-07T03:07:14;23.10;;;12.73;;
4055;SDS011;2043;52.184;8.690;2023-04-07T03:09:40;19.20;;;11.27;;
4055;SDS011;2043;52.184;8.690;2023-04-07T03:12:07;21.27;;;12.63;;
4055;SDS011;2043;52.184;8.690;2023-04-07T03:14:34;20.10;;;12.00;;
4055;SDS011;2043;52.184;8.690;2023-04-07T03:17:01;21.00;;;12.70;;
4055;SDS011;2043;52.184;8.690;2023-04-07T03:19:28;20.90;;;11.70;;
4055;SDS011;2043;52.184;8.690;2023-04-07T03:21:55;20.43;;;12.30;;
4055;SDS011;2043;52.184;8.690;2023-04-07T03:24:22;21.57;;;12.03;;
4055;SDS011;2043;52.184;8.690;2023-04-07T03:26:49;20.90;;;13.00;;
4055;SDS011;2043;52.184;8.690;2023-04-07T03:29:16;22.00;;;12.63;;
4055;SDS011;2043;52.184;8.690;2023-04-07T03:31:43;23.87;;;13.47;;
4055;SDS011;2043;52.184;8.690;2023-04-07T03:34:11;21.80;;;12.90;;
4055;SDS011;2043;52.184;8.690;2023-04-07T03:36:38;20.83;;;11.90;;
4055;SDS011;2043;52.184;8.690;2023-04-07T03:39:05;20.77;;;12.27;;
4055;SDS011;2043;52.184;8.690;2023-04-07T03:41:32;18.80;;;11.07;;
4055;SDS011;2043;52.184;8.690;2023-04-07T03:43:58;21.30;;;12.23;;
4055;SDS011;2043;52.184;8.690;2023-04-07T03:46:25;24.23;;;12.90;;
4055;SDS011;2043;52.184;8.690;2023-04-07T03:48:52;22.00;;;12.20;;
4055;SDS011;2043;52.184;8.690;2023-04-07T03:51:19;21.00;;;13.13;;
4055;SDS011;2043;52.184;8.690;2023-04-07T03:53:46;21.50;;;12.73;;
4055;SDS011;2043;52.184;8.690;2023-04-07T03:56:12;23.20;;;12.60;;
4055;SDS011;2043;52.184;8.690;2023-04-07T03:58:39;24.53;;;14.30;;
4055;SDS011;2043;52.184;8.690;2023-04-07T04:01:07;24.13;;;13.63;;
4055;SDS011;2043;52.184;8.690;2023-04-07T04:03:34;22.80;;;13.03;;
4055;SDS011;2043;52.184;8.690;2023-04-07T04:06:01;24.33;;;13.50;;
4055;SDS011;2043;52.184;8.690;2023-04-07T04:08:29;21.93;;;12.30;;
4055;SDS011;2043;52.184;8.690;2023-04-07T04:10:56;23.90;;;13.90;;
4055;SDS011;2043;52.184;8.690;2023-04-07T04:13:22;22.27;;;13.17;;
4055;SDS011;2043;52.184;8.690;2023-04-07T04:15:49;24.43;;;13.93;;
4055;SDS011;2043;52.184;8.690;2023-04-07T04:18:16;21.07;;;12.30;;
4055;SDS011;2043;52.184;8.690;2023-04-07T04:20:43;21.57;;;13.20;;
4055;SDS011;2043;52.184;8.690;2023-04-07T04:23:10;27.20;;;12.40;;
4055;SDS011;2043;52.184;8.690;2023-04-07T04:25:37;23.50;;;13.50;;
4055;SDS011;2043;52.184;8.690;2023-04-07T04:28:05;23.10;;;12.50;;
4055;SDS011;2043;52.184;8.690;2023-04-07T04:30:32;21.53;;;12.80;;
4055;SDS011;2043;52.184;8.690;2023-04-07T04:32:59;22.47;;;13.10;;
4055;SDS011;2043;52.184;8.690;2023-04-07T04:35:26;21.60;;;12.47;;
4055;SDS011;2043;52.184;8.690;2023-04-07T04:37:53;20.47;;;12.40;;
4055;SDS011;2043;52.184;8.690;2023-04-07T04:40:19;19.83;;;12.90;;
4055;SDS011;2043;52.184;8.690;2023-04-07T04:42:46;18.47;;;12.03;;
4055;SDS011;2043;52.184;8.690;2023-04-07T04:45:13;21.50;;;12.03;;
4055;SDS011;2043;52.184;8.690;2023-04-07T04:47:40;22.30;;;13.47;;
4055;SDS011;2043;52.184;8.690;2023-04-07T04:50:09;20.40;;;12.60;;
4055;SDS011;2043;52.184;8.690;2023-04-07T04:52:36;24.83;;;13.00;;
4055;SDS011;2043;52.184;8.690;2023-04-07T04:55:04;23.83;;;13.90;;
4055;SDS011;2043;52.184;8.690;2023-04-07T04:57:31;20.33;;;13.07;;
4055;SDS011;2043;52.184;8.690;2023-04-07T05:00:01;24.30;;;13.83;;
4055;SDS011;2043;52.184;8.690;2023-04-07T05:02:29;21.30;;;13.00;;
4055;SDS011;2043;52.184;8.690;2023-04-07T05:04:57;27.90;;;13.20;;
4055;SDS011;2043;52.184;8.690;2023-04-07T05:07:24;21.33;;;12.90;;
4055;SDS011;2043;52.184;8.690;2023-04-07T05:09:51;22.10;;;13.33;;
4055;SDS011;2043;52.184;8.690;2023-04-07T05:12:18;24.00;;;14.03;;
4055;SDS011;2043;52.184;8.690;2023-04-07T05:14:44;22.87;;;13.57;;
4055;SDS011;2043;52.184;8.690;2023-04-07T05:17:11;24.43;;;14.10;;
4055;SDS011;2043;52.184;8.690;2023-04-07T05:19:38;22.37;;;13.20;;
4055;SDS011;2043;52.184;8.690;2023-04-07T05:22:05;24.47;;;14.10;;
4055;SDS011;2043;52.184;8.690;2023-04-07T05:24:32;22.40;;;13.17;;
4055;SDS011;2043;52.184;8.690;2023-04-07T05:26:59;21.10;;;12.47;;
4055;SDS011;2043;52.184;8.690;2023-04-07T05:29:27;20.27;;;12.37;;
4055;SDS011;2043;52.184;8.690;2023-04-07T05:31:53;23.50;;;13.70;;
4055;SDS011;2043;52.184;8.690;2023-04-07T05:34:20;23.10;;;13.07;;
4055;SDS011;2043;52.184;8.690;2023-04-07T05:36:47;20.90;;;12.60;;
4055;SDS011;2043;52.184;8.690;2023-04-07T05:39:14;21.00;;;12.40;;
4055;SDS011;2043;52.184;8.690;2023-04-07T05:41:41;19.87;;;12.13;;
4055;SDS011;2043;52.184;8.690;2023-04-07T05:44:07;19.67;;;12.10;;
4055;SDS011;2043;52.184;8.690;2023-04-07T05:46:34;24.03;;;12.93;;
4055;SDS011;2043;52.184;8.690;2023-04-07T05:49:01;19.27;;;12.20;;
4055;SDS011;2043;52.184;8.690;2023-04-07T05:51:45;22.00;;;12.10;;
4055;SDS011;2043;52.184;8.690;2023-04-07T05:54:14;19.07;;;11.67;;
4055;SDS011;2043;52.184;8.690;2023-04-07T05:56:40;19.23;;;11.83;;
4055;SDS011;2043;52.184;8.690;2023-04-07T05:59:07;21.33;;;11.87;;
4055;SDS011;2043;52.184;8.690;2023-04-07T06:01:35;22.93;;;12.00;;
4055;SDS011;2043;52.184;8.690;2023-04-07T06:04:01;17.33;;;11.00;;
4055;SDS011;2043;52.184;8.690;2023-04-07T06:06:29;22.33;;;12.50;;
4055;SDS011;2043;52.184;8.690;2023-04-07T06:08:56;18.43;;;11.23;;
4055;SDS011;2043;52.184;8.690;2023-04-07T06:11:24;16.60;;;10.30;;
4055;SDS011;2043;52.184;8.690;2023-04-07T06:13:52;16.07;;;10.10;;
4055;SDS011;2043;52.184;8.690;2023-04-07T06:16:18;22.23;;;10.93;;
4055;SDS011;2043;52.184;8.690;2023-04-07T06:18:46;18.87;;;10.60;;
4055;SDS011;2043;52.184;8.690;2023-04-07T06:21:12;16.63;;;11.20;;
4055;SDS011;2043;52.184;8.690;2023-04-07T06:23:39;18.30;;;9.50;;
4055;SDS011;2043;52.184;8.690;2023-04-07T06:26:09;17.13;;;10.73;;
4055;SDS011;2043;52.184;8.690;2023-04-07T06:28:37;16.37;;;10.30;;
4055;SDS011;2043;52.184;8.690;2023-04-07T06:31:04;20.37;;;10.60;;
4055;SDS011;2043;52.184;8.690;2023-04-07T06:33:32;15.30;;;10.07;;
4055;SDS011;2043;52.184;8.690;2023-04-07T06:35:59;15.70;;;9.73;;
4055;SDS011;2043;52.184;8.690;2023-04-07T06:38:25;16.00;;;10.20;;
4055;SDS011;2043;52.184;8.690;2023-04-07T06:40:52;21.77;;;11.17;;
4055;SDS011;2043;52.184;8.690;2023-04-07T06:43:19;15.47;;;10.30;;
4055;SDS011;2043;52.184;8.690;2023-04-07T06:45:46;14.87;;;9.97;;
4055;SDS011;2043;52.184;8.690;2023-04-07T06:48:13;15.80;;;10.00;;
4055;SDS011;2043;52.184;8.690;2023-04-07T06:50:40;16.77;;;9.90;;
4055;SDS011;2043;52.184;8.690;2023-04-07T06:53:06;16.77;;;10.00;;
4055;SDS011;2043;52.184;8.690;2023-04-07T06:55:33;15.53;;;9.90;;
4055;SDS011;2043;52.184;8.690;2023-04-07T06:58:00;14.30;;;9.30;;
4055;SDS011;2043;52.184;8.690;2023-04-07T07:00:27;13.23;;;8.80;;
4055;SDS011;2043;52.184;8.690;2023-04-07T07:02:56;16.03;;;9.30;;
4055;SDS011;2043;52.184;8.690;2023-04-07T07:05:23;14.90;;;9.70;;
4055;SDS011;2043;52.184;8.690;2023-04-07T07:07:50;14.43;;;8.83;;
4055;SDS011;2043;52.184;8.690;2023-04-07T07:10:17;14.67;;;9.37;;
4055;SDS011;2043;52.184;8.690;2023-04-07T07:12:45;16.63;;;9.80;;
4055;SDS011;2043;52.184;8.690;2023-04-07T07:15:12;15.40;;;9.07;;
4055;SDS011;2043;52.184;8.690;2023-04-07T07:17:39;15.53;;;9.40;;
4055;SDS011;2043;52.184;8.690;2023-04-07T07:20:06;13.53;;;8.33;;
4055;SDS011;2043;52.184;8.690;2023-04-07T07:22:33;13.80;;;8.67;;
4055;SDS011;2043;52.184;8.690;2023-04-07T07:25:00;14.53;;;8.87;;
4055;SDS011;2043;52.184;8.690;2023-04-07T07:27:28;13.97;;;8.60;;
4055;SDS011;2043;52.184;8.690;2023-04-07T07:29:55;13.63;;;8.73;;
4055;SDS011;2043;52.184;8.690;2023-04-07T07:32:22;18.90;;;8.00;;
4055;SDS011;2043;52.184;8.690;2023-04-07T07:34:48;12.50;;;8.10;;
4055;SDS011;2043;52.184;8.690;2023-04-07T07:37:15;15.93;;;8.77;;
4055;SDS011;2043;52.184;8.690;2023-04-07T07:39:42;14.50;;;8.33;;
4055;SDS011;2043;52.184;8.690;2023-04-07T07:42:09;11.87;;;7.47;;
4055;SDS011;2043;52.184;8.690;2023-04-07T07:44:36;12.17;;;7.50;;
4055;SDS011;2043;52.184;8.690;2023-04-07T07:47:02;11.40;;;7.10;;
4055;SDS011;2043;52.184;8.690;2023-04-07T07:49:29;9.50;;;6.40;;
4055;SDS011;2043;52.184;8.690;2023-04-07T07:51:57;13.67;;;7.23;;
4055;SDS011;2043;52.184;8.690;2023-04-07T07:54:24;10.10;;;6.63;;
4055;SDS011;2043;52.184;8.690;2023-04-07T07:56:51;11.10;;;7.13;;
4055;SDS011;2043;52.184;8.690;2023-04-07T07:59:18;10.67;;;7.33;;
4055;SDS011;2043;52.184;8.690;2023-04-07T08:01:45;12.40;;;7.57;;
4055;SDS011;2043;52.184;8.690;2023-04-07T08:04:11;10.80;;;7.40;;
4055;SDS011;2043;52.184;8.690;2023-04-07T08:06:39;10.27;;;6.43;;
4055;SDS011;2043;52.184;8.690;2023-04-07T08:09:05;11.03;;;6.67;;
4055;SDS011;2043;52.184;8.690;2023-04-07T08:11:32;9.63;;;6.03;;
4055;SDS011;2043;52.184;8.690;2023-04-07T08:13:59;9.20;;;6.47;;
4055;SDS011;2043;52.184;8.690;2023-04-07T08:16:26;11.53;;;6.20;;
4055;SDS011;2043;52.184;8.690;2023-04-07T08:18:53;11.67;;;6.37;;
4055;SDS011;2043;52.184;8.690;2023-04-07T08:21:20;8.60;;;5.53;;
4055;SDS011;2043;52.184;8.690;2023-04-07T08:23:47;9.60;;;6.13;;
4055;SDS011;2043;52.184;8.690;2023-04-07T08:26:14;9.10;;;6.27;;
4055;SDS011;2043;52.184;8.690;2023-04-07T08:28:41;9.70;;;6.53;;
4055;SDS011;2043;52.184;8.690;2023-04-07T08:31:08;8.37;;;6.07;;
4055;SDS011;2043;52.184;8.690;2023-04-07T08:33:34;8.80;;;6.00;;
4055;SDS011;2043;52.184;8.690;2023-04-07T08:36:01;10.57;;;6.50;;
4055;SDS011;2043;52.184;8.690;2023-04-07T08:38:29;13.03;;;6.50;;
4055;SDS011;2043;52.184;8.690;2023-04-07T08:41:06;10.30;;;6.90;;
4055;SDS011;2043;52.184;8.690;2023-04-07T08:43:36;11.87;;;7.63;;
4055;SDS011;2043;52.184;8.690;2023-04-07T08:46:05;10.90;;;6.80;;
4055;SDS011;2043;52.184;8.690;2023-04-07T08:48:34;14.83;;;7.40;;
4055;SDS011;2043;52.184;8.690;2023-04-07T08:51:04;9.47;;;6.63;;
4055;SDS011;2043;52.184;8.690;2023-04-07T08:53:42;10.40;;;6.77;;
4055;SDS011;2043;52.184;8.690;2023-04-07T08:56:18;11.53;;;6.77;;
4055;SDS011;2043;52.184;8.690;2023-04-07T08:58:48;8.57;;;6.00;;
4055;SDS011;2043;52.184;8.690;2023-04-07T09:01:16;11.50;;;7.00;;
4055;SDS011;2043;52.184;8.690;2023-04-07T09:03:45;11.10;;;7.47;;
4055;SDS011;2043;52.184;8.690;2023-04-07T09:06:14;12.60;;;7.10;;
4055;SDS011;2043;52.184;8.690;2023-04-07T09:08:41;11.70;;;8.00;;
4055;SDS011;2043;52.184;8.690;2023-04-07T09:11:08;11.87;;;8.37;;
4055;SDS011;2043;52.184;8.690;2023-04-07T09:13:34;13.00;;;8.40;;
4055;SDS011;2043;52.184;8.690;2023-04-07T09:16:01;13.30;;;8.00;;
4055;SDS011;2043;52.184;8.690;2023-04-07T09:18:28;13.17;;;9.20;;
4055;SDS011;2043;52.184;8.690;2023-04-07T09:23:39;17.53;;;8.47;;
4055;SDS011;2043;52.184;8.690;2023-04-07T09:26:41;13.90;;;8.30;;
4055;SDS011;2043;52.184;8.690;2023-04-07T09:29:01;14.93;;;8.20;;
4055;SDS011;2043;52.184;8.690;2023-04-07T09:31:45;21.10;;;8.90;;
4055;SDS011;2043;52.184;8.690;2023-04-07T09:34:22;12.30;;;8.27;;
4055;SDS011;2043;52.184;8.690;2023-04-07T09:36:53;13.73;;;9.03;;
4055;SDS011;2043;52.184;8.690;2023-04-07T09:39:20;13.30;;;8.40;;
4055;SDS011;2043;52.184;8.690;2023-04-07T09:41:47;13.87;;;8.43;;
4055;SDS011;2043;52.184;8.690;2023-04-07T09:44:13;13.23;;;8.73;;
4055;SDS011;2043;52.184;8.690;2023-04-07T09:46:50;15.60;;;9.30;;
4055;SDS011;2043;52.184;8.690;2023-04-07T09:49:17;16.27;;;9.30;;
4055;SDS011;2043;52.184;8.690;2023-04-07T09:54:38;16.20;;;11.43;;
4055;SDS011;2043;52.184;8.690;2023-04-07T09:57:07;16.50;;;11.27;;
4055;SDS011;2043;52.184;8.690;2023-04-07T09:59:36;16.13;;;9.90;;
4055;SDS011;2043;52.184;8.690;2023-04-07T10:02:04;22.90;;;10.57;;
4055;SDS011;2043;52.184;8.690;2023-04-07T10:04:31;17.20;;;10.53;;
4055;SDS011;2043;52.184;8.690;2023-04-07T10:06:58;14.90;;;10.90;;
4055;SDS011;2043;52.184;8.690;2023-04-07T10:09:26;16.60;;;12.10;;
4055;SDS011;2043;52.184;8.690;2023-04-07T10:11:54;19.40;;;12.00;;
4055;SDS011;2043;52.184;8.690;2023-04-07T10:14:25;15.17;;;11.20;;
4055;SDS011;2043;52.184;8.690;2023-04-07T10:16:55;15.33;;;10.30;;
4055;SDS011;2043;52.184;8.690;2023-04-07T10:19:23;15.20;;;10.13;;
4055;SDS011;2043;52.184;8.690;2023-04-07T10:21:52;16.13;;;10.63;;
4055;SDS011;2043;52.184;8.690;2023-04-07T10:27:30;15.87;;;11.00;;
4055;SDS011;2043;52.184;8.690;2023-04-07T10:30:00;17.00;;;11.07;;
4055;SDS011;2043;52.184;8.690;2023-04-07T10:32:31;21.00;;;11.57;;
4055;SDS011;2043;52.184;8.690;2023-04-07T10:34:58;18.10;;;11.73;;
4055;SDS011;2043;52.184;8.690;2023-04-07T10:37:26;17.23;;;12.37;;
4055;SDS011;2043;52.184;8.690;2023-04-07T10:42:45;19.70;;;12.30;;
4055;SDS011;2043;52.184;8.690;2023-04-07T10:45:14;16.00;;;11.47;;
4055;SDS011;2043;52.184;8.690;2023-04-07T10:48:23;18.00;;;11.90;;
4055;SDS011;2043;52.184;8.690;2023-04-07T10:50:30;21.30;;;13.20;;
4055;SDS011;2043;52.184;8.690;2023-04-07T10:53:31;19.33;;;12.47;;
4055;SDS011;2043;52.184;8.690;2023-04-07T10:55:53;17.07;;;12.17;;
4055;SDS011;2043;52.184;8.690;2023-04-07T11:03:37;18.93;;;12.33;;
4055;SDS011;2043;52.184;8.690;2023-04-07T11:06:09;20.83;;;13.03;;
4055;SDS011;2043;52.184;8.690;2023-04-07T11:08:38;20.60;;;13.13;;
4055;SDS011;2043;52.184;8.690;2023-04-07T11:11:06;18.80;;;13.30;;
4055;SDS011;2043;52.184;8.690;2023-04-07T11:16:10;19.73;;;13.10;;
4055;SDS011;2043;52.184;8.690;2023-04-07T11:18:37;27.13;;;15.00;;
4055;SDS011;2043;52.184;8.690;2023-04-07T11:21:06;19.60;;;13.33;;
4055;SDS011;2043;52.184;8.690;2023-04-07T11:23:51;19.20;;;13.90;;
4055;SDS011;2043;52.184;8.690;2023-04-07T11:26:18;20.03;;;13.87;;
4055;SDS011;2043;52.184;8.690;2023-04-07T11:28:47;19.47;;;13.50;;
4055;SDS011;2043;52.184;8.690;2023-04-07T11:31:20;20.40;;;14.30;;
4055;SDS011;2043;52.184;8.690;2023-04-07T11:33:52;20.70;;;14.17;;
4055;SDS011;2043;52.184;8.690;2023-04-07T11:39:00;20.47;;;13.30;;
4055;SDS011;2043;52.184;8.690;2023-04-07T11:41:28;22.50;;;15.27;;
4055;SDS011;2043;52.184;8.690;2023-04-07T11:46:32;19.07;;;13.00;;
4055;SDS011;2043;52.184;8.690;2023-04-07T11:49:08;21.20;;;13.20;;
4055;SDS011;2043;52.184;8.690;2023-04-07T11:51:37;19.43;;;12.67;;
4055;SDS011;2043;52.184;8.690;2023-04-07T11:54:04;26.83;;;15.03;;
4055;SDS011;2043;52.184;8.690;2023-04-07T11:56:40;22.53;;;14.07;;
4055;SDS011;2043;52.184;8.690;2023-04-07T11:59:08;21.27;;;13.33;;
4055;SDS011;2043;52.184;8.690;2023-04-07T12:01:48;16.70;;;11.73;;
4055;SDS011;2043;52.184;8.690;2023-04-07T12:04:17;19.10;;;12.30;;
4055;SDS011;2043;52.184;8.690;2023-04-07T12:06:45;24.50;;;12.77;;
4055;SDS011;2043;52.184;8.690;2023-04-07T12:09:32;21.00;;;12.60;;
4055;SDS011;2043;52.184;8.690;2023-04-07T12:12:03;17.60;;;12.10;;
4055;SDS011;2043;52.184;8.690;2023-04-07T12:14:32;18.70;;;12.37;;
4055;SDS011;2043;52.184;8.690;2023-04-07T12:17:00;18.13;;;11.90;;
4055;SDS011;2043;52.184;8.690;2023-04-07T12:19:29;23.63;;;13.20;;
4055;SDS011;2043;52.184;8.690;2023-04-07T12:22:00;22.07;;;14.27;;
4055;SDS011;2043;52.184;8.690;2023-04-07T12:24:27;20.60;;;12.57;;
4055;SDS011;2043;52.184;8.690;2023-04-07T12:26:54;19.13;;;12.63;;
4055;SDS011;2043;52.184;8.690;2023-04-07T12:29:21;22.70;;;14.00;;
4055;SDS011;2043;52.184;8.690;2023-04-07T12:31:48;18.43;;;12.60;;
4055;SDS011;2043;52.184;8.690;2023-04-07T12:34:16;19.87;;;13.27;;
4055;SDS011;2043;52.184;8.690;2023-04-07T12:36:43;24.80;;;13.93;;
4055;SDS011;2043;52.184;8.690;2023-04-07T12:39:10;25.47;;;12.93;;
4055;SDS011;2043;52.184;8.690;2023-04-07T12:41:37;20.47;;;13.70;;
4055;SDS011;2043;52.184;8.690;2023-04-07T12:44:04;19.07;;;12.90;;
4055;SDS011;2043;52.184;8.690;2023-04-07T12:46:31;21.30;;;12.53;;
4055;SDS011;2043;52.184;8.690;2023-04-07T12:48:59;19.07;;;11.93;;
4055;SDS011;2043;52.184;8.690;2023-04-07T12:51:26;18.77;;;11.90;;
4055;SDS011;2043;52.184;8.690;2023-04-07T12:53:53;17.67;;;12.73;;
4055;SDS011;2043;52.184;8.690;2023-04-07T12:56:20;20.30;;;13.10;;
4055;SDS011;2043;52.184;8.690;2023-04-07T12:58:47;18.20;;;12.30;;
4055;SDS011;2043;52.184;8.690;2023-04-07T13:01:14;19.60;;;12.07;;
4055;SDS011;2043;52.184;8.690;2023-04-07T13:03:42;20.40;;;12.43;;
4055;SDS011;2043;52.184;8.690;2023-04-07T13:06:09;19.00;;;12.60;;
4055;SDS011;2043;52.184;8.690;2023-04-07T13:08:37;22.23;;;12.90;;
4055;SDS011;2043;52.184;8.690;2023-04-07T13:11:04;16.80;;;12.50;;
4055;SDS011;2043;52.184;8.690;2023-04-07T13:13:31;20.23;;;13.20;;
4055;SDS011;2043;52.184;8.690;2023-04-07T13:15:58;17.50;;;12.30;;
4055;SDS011;2043;52.184;8.690;2023-04-07T13:18:26;20.83;;;12.87;;
4055;SDS011;2043;52.184;8.690;2023-04-07T13:20:52;19.30;;;13.13;;
4055;SDS011;2043;52.184;8.690;2023-04-07T13:23:39;20.07;;;13.40;;
4055;SDS011;2043;52.184;8.690;2023-04-07T13:26:18;25.43;;;15.13;;
4055;SDS011;2043;52.184;8.690;2023-04-07T13:28:45;22.27;;;13.90;;
4055;SDS011;2043;52.184;8.690;2023-04-07T13:31:13;20.60;;;14.43;;
4055;SDS011;2043;52.184;8.690;2023-04-07T13:33:41;21.57;;;14.53;;
4055;SDS011;2043;52.184;8.690;2023-04-07T13:36:08;24.27;;;15.63;;
4055;SDS011;2043;52.184;8.690;2023-04-07T13:38:35;22.30;;;14.63;;
4055;SDS011;2043;52.184;8.690;2023-04-07T13:41:02;24.33;;;15.00;;
4055;SDS011;2043;52.184;8.690;2023-04-07T13:43:29;22.03;;;15.00;;
4055;SDS011;2043;52.184;8.690;2023-04-07T13:45:56;22.97;;;14.90;;
4055;SDS011;2043;52.184;8.690;2023-04-07T13:48:22;24.60;;;14.70;;
4055;SDS011;2043;52.184;8.690;2023-04-07T13:50:49;22.17;;;15.10;;
4055;SDS011;2043;52.184;8.690;2023-04-07T13:53:16;22.73;;;14.80;;
4055;SDS011;2043;52.184;8.690;2023-04-07T13:55:44;21.57;;;14.70;;
4055;SDS011;2043;52.184;8.690;2023-04-07T13:58:11;22.70;;;14.83;;
4055;SDS011;2043;52.184;8.690;2023-04-07T14:00:38;21.20;;;14.03;;
4055;SDS011;2043;52.184;8.690;2023-04-07T14:03:05;23.70;;;15.20;;
4055;SDS011;2043;52.184;8.690;2023-04-07T14:05:33;24.70;;;13.93;;
4055;SDS011;2043;52.184;8.690;2023-04-07T14:08:00;23.83;;;14.80;;
4055;SDS011;2043;52.184;8.690;2023-04-07T14:10:27;27.90;;;14.57;;
4055;SDS011;2043;52.184;8.690;2023-04-07T14:12:54;22.00;;;14.27;;
4055;SDS011;2043;52.184;8.690;2023-04-07T14:15:21;30.40;;;14.93;;
4055;SDS011;2043;52.184;8.690;2023-04-07T14:17:48;26.03;;;15.10;;
4055;SDS011;2043;52.184;8.690;2023-04-07T14:20:15;22.10;;;13.73;;
4055;SDS011;2043;52.184;8.690;2023-04-07T14:22:41;26.70;;;14.80;;
4055;SDS011;2043;52.184;8.690;2023-04-07T14:25:09;24.97;;;15.50;;
4055;SDS011;2043;52.184;8.690;2023-04-07T14:27:36;20.60;;;14.03;;
4055;SDS011;2043;52.184;8.690;2023-04-07T14:30:03;21.63;;;14.47;;
4055;SDS011;2043;52.184;8.690;2023-04-07T14:32:31;20.20;;;13.97;;
4055;SDS011;2043;52.184;8.690;2023-04-07T14:34:59;22.87;;;14.10;;
4055;SDS011;2043;52.184;8.690;2023-04-07T14:37:27;23.90;;;14.40;;
4055;SDS011;2043;52.184;8.690;2023-04-07T14:39:54;23.70;;;14.23;;
4055;SDS011;2043;52.184;8.690;2023-04-07T14:42:24;20.50;;;13.47;;
4055;SDS011;2043;52.184;8.690;2023-04-07T14:44:51;21.77;;;14.33;;
4055;SDS011;2043;52.184;8.690;2023-04-07T14:47:18;20.93;;;12.90;;
4055;SDS011;2043;52.184;8.690;2023-04-07T14:49:45;23.93;;;14.03;;
4055;SDS011;2043;52.184;8.690;2023-04-07T14:52:12;22.10;;;13.50;;
4055;SDS011;2043;52.184;8.690;2023-04-07T14:54:39;20.73;;;13.13;;
4055;SDS011;2043;52.184;8.690;2023-04-07T14:57:06;21.97;;;13.90;;
4055;SDS011;2043;52.184;8.690;2023-04-07T14:59:32;19.83;;;13.73;;
4055;SDS011;2043;52.184;8.690;2023-04-07T15:02:00;20.53;;;13.80;;
4055;SDS011;2043;52.184;8.690;2023-04-07T15:04:27;21.43;;;14.70;;
4055;SDS011;2043;52.184;8.690;2023-04-07T15:06:54;22.83;;;14.60;;
4055;SDS011;2043;52.184;8.690;2023-04-07T15:09:21;23.13;;;14.63;;
4055;SDS011;2043;52.184;8.690;2023-04-07T15:11:48;19.57;;;13.10;;
4055;SDS011;2043;52.184;8.690;2023-04-07T15:14:14;21.50;;;13.57;;
4055;SDS011;2043;52.184;8.690;2023-04-07T15:16:41;21.03;;;13.90;;
4055;SDS011;2043;52.184;8.690;2023-04-07T15:19:08;22.10;;;13.90;;
4055;SDS011;2043;52.184;8.690;2023-04-07T15:21:35;21.80;;;14.30;;
4055;SDS011;2043;52.184;8.690;2023-04-07T15:24:01;21.20;;;13.73;;
4055;SDS011;2043;52.184;8.690;2023-04-07T15:26:28;25.00;;;16.70;;
4055;SDS011;2043;52.184;8.690;2023-04-07T15:28:55;21.40;;;14.77;;
4055;SDS011;2043;52.184;8.690;2023-04-07T15:31:22;32.43;;;19.17;;
4055;SDS011;2043;52.184;8.690;2023-04-07T15:33:50;37.67;;;22.30;;
4055;SDS011;2043;52.184;8.690;2023-04-07T15:36:17;26.20;;;16.77;;
4055;SDS011;2043;52.184;8.690;2023-04-07T15:38:44;30.03;;;20.10;;